Time;durP1;ratioP1;P1;durP2;ratioP2;P2;SDS_P1;SDS_P2;PMS_P1;PMS_P2;Temp;Humidity;BMP_temperature;BMP_pressure;BME280_temperature;BME280_humidity;BME280_pressure;Samples;Min_cycle;Max_cycle;Signal;HPM_P1;HPM_P2
2022/05/25 00:02:24;;;;;;;5.85;1.98;;;;;;;;;;5112763;27;20649;-74
2022/05/25 00:04:51;;;;;;;7.05;1.90;;;;;;;;;;5106837;28;20919;-75
2022/05/25 00:07:17;;;;;;;5.47;2.22;;;;;;;;;;5109363;27;20197;-73
2022/05/25 00:09:44;;;;;;;12.27;2.10;;;;;;;;;;5114738;27;20188;-76
2022/05/25 00:12:10;;;;;;;7.00;2.20;;;;;;;;;;5107346;27;20336;-74
2022/05/25 00:14:36;;;;;;;4.45;2.00;;;;;;;;;;5118167;27;20653;-74
2022/05/25 00:17:03;;;;;;;5.15;2.08;;;;;;;;;;5119174;27;20196;-72
2022/05/25 00:22:13;;;;;;;5.95;2.05;;;;;;;;;;5110003;27;20192;-73
2022/05/25 00:24:39;;;;;;;5.65;2.03;;;;;;;;;;5107480;27;20221;-72
2022/05/25 00:27:06;;;;;;;8.77;2.53;;;;;;;;;;5108487;27;20193;-74
2022/05/25 00:29:32;;;;;;;6.32;2.38;;;;;;;;;;5121042;27;20197;-73
2022/05/25 00:31:59;;;;;;;8.40;2.17;;;;;;;;;;5109270;27;20280;-75
2022/05/25 00:34:25;;;;;;;7.43;2.55;;;;;;;;;;5108686;28;20211;-73
2022/05/25 00:36:51;;;;;;;5.43;2.17;;;;;;;;;;5108102;28;20177;-75
2022/05/25 00:39:17;;;;;;;5.88;2.33;;;;;;;;;;5093016;28;20181;-72
2022/05/25 00:41:43;;;;;;;3.85;2.03;;;;;;;;;;5107571;28;20225;-73
2022/05/25 00:44:09;;;;;;;9.70;2.20;;;;;;;;;;5113531;27;20222;-72
2022/05/25 00:46:37;;;;;;;3.75;2.00;;;;;;;;;;5108515;27;20717;-76
2022/05/25 00:49:11;;;;;;;10.10;2.15;;;;;;;;;;5126647;27;20177;-76
2022/05/25 00:51:42;;;;;;;3.95;1.70;;;;;;;;;;5105548;27;20205;-73
2022/05/25 00:54:11;;;;;;;6.68;2.00;;;;;;;;;;5111037;27;20177;-75
2022/05/25 00:56:40;;;;;;;7.32;1.80;;;;;;;;;;5123109;27;20225;-74
2022/05/25 00:59:11;;;;;;;8.73;2.20;;;;;;;;;;5109591;27;20307;-73
2022/05/25 01:01:37;;;;;;;7.18;2.00;;;;;;;;;;5116183;27;20193;-73
2022/05/25 01:04:03;;;;;;;6.97;2.38;;;;;;;;;;5112875;27;20673;-75
2022/05/25 01:06:52;;;;;;;5.80;1.73;;;;;;;;;;5090569;28;20189;-73
2022/05/25 01:09:37;;;;;;;6.60;1.85;;;;;;;;;;5118164;27;20676;-72
2022/05/25 01:12:06;;;;;;;5.25;1.85;;;;;;;;;;5110462;27;20173;-71
2022/05/25 01:14:38;;;;;;;3.75;1.60;;;;;;;;;;5107247;27;20241;-74
2022/05/25 01:17:07;;;;;;;4.85;1.73;;;;;;;;;;5107853;28;20590;-74
2022/05/25 01:19:47;;;;;;;8.30;1.70;;;;;;;;;;5109639;28;20198;-72
2022/05/25 01:22:28;;;;;;;3.13;1.60;;;;;;;;;;5106079;28;20185;-72
2022/05/25 01:24:54;;;;;;;4.90;1.80;;;;;;;;;;5108037;28;20208;-74
2022/05/25 01:27:29;;;;;;;5.05;1.73;;;;;;;;;;5104800;28;21129;-74
2022/05/25 01:29:55;;;;;;;6.65;1.90;;;;;;;;;;5122284;27;20176;-76
2022/05/25 01:32:21;;;;;;;8.07;1.52;;;;;;;;;;5103367;28;20190;-76
2022/05/25 01:35:07;;;;;;;6.45;2.50;;;;;;;;;;5109007;28;20279;-73
2022/05/25 01:37:39;;;;;;;8.13;1.70;;;;;;;;;;5118275;27;20184;-71
2022/05/25 01:40:05;;;;;;;7.03;1.75;;;;;;;;;;5109584;27;20268;-74
2022/05/25 01:42:35;;;;;;;7.93;1.80;;;;;;;;;;5106192;28;20304;-74
2022/05/25 01:45:06;;;;;;;7.55;1.95;;;;;;;;;;5109544;27;20231;-73
2022/05/25 01:47:34;;;;;;;5.78;1.80;;;;;;;;;;5106745;28;20230;-75
2022/05/25 01:50:02;;;;;;;5.65;2.10;;;;;;;;;;5108634;28;21085;-74
2022/05/25 01:52:34;;;;;;;7.32;2.10;;;;;;;;;;5107461;28;20595;-72
2022/05/25 01:55:03;;;;;;;8.23;2.08;;;;;;;;;;5122001;27;20547;-72
2022/05/25 01:57:31;;;;;;;7.60;2.47;;;;;;;;;;5107090;28;20188;-72
2022/05/25 01:59:57;;;;;;;4.78;1.85;;;;;;;;;;5112709;27;20276;-76
2022/05/25 02:05:11;;;;;;;6.00;2.17;;;;;;;;;;5107774;27;20704;-75
2022/05/25 02:07:41;;;;;;;4.72;1.80;;;;;;;;;;5106720;28;20319;-72
2022/05/25 02:10:13;;;;;;;6.00;2.20;;;;;;;;;;5106776;28;20185;-76
2022/05/25 02:12:42;;;;;;;8.38;2.10;;;;;;;;;;5106314;28;21240;-74
2022/05/25 02:15:27;;;;;;;6.95;2.00;;;;;;;;;;5106592;28;20185;-74
2022/05/25 02:18:05;;;;;;;9.57;2.30;;;;;;;;;;5107595;28;20181;-73
2022/05/25 02:20:34;;;;;;;9.27;2.13;;;;;;;;;;5113816;28;22162;-74
2022/05/25 02:23:05;;;;;;;8.05;2.17;;;;;;;;;;5123170;27;20177;-75
2022/05/25 02:25:35;;;;;;;4.90;2.20;;;;;;;;;;5105676;28;20537;-73
2022/05/25 02:28:04;;;;;;;6.63;2.10;;;;;;;;;;5111302;27;20280;-73
2022/05/25 02:30:30;;;;;;;5.07;2.10;;;;;;;;;;5111582;27;20267;-74
2022/05/25 02:33:10;;;;;;;7.70;2.20;;;;;;;;;;5118905;27;20234;-75
2022/05/25 02:35:39;;;;;;;7.43;2.20;;;;;;;;;;5111471;27;20245;-75
2022/05/25 02:38:06;;;;;;;6.25;2.40;;;;;;;;;;5111764;27;20208;-72
2022/05/25 02:40:33;;;;;;;7.63;2.42;;;;;;;;;;5115895;27;20597;-72
2022/05/25 02:42:59;;;;;;;6.53;2.28;;;;;;;;;;5112253;27;20684;-72
2022/05/25 02:45:26;;;;;;;7.53;2.00;;;;;;;;;;5117961;27;20292;-73
2022/05/25 02:47:52;;;;;;;8.10;2.47;;;;;;;;;;5111237;27;20177;-72
2022/05/25 02:50:18;;;;;;;9.32;2.55;;;;;;;;;;5112740;27;20703;-71
2022/05/25 02:52:44;;;;;;;11.48;2.17;;;;;;;;;;5108936;28;20185;-74
2022/05/25 02:55:10;;;;;;;9.43;2.40;;;;;;;;;;5118315;27;20188;-74
2022/05/25 02:57:36;;;;;;;6.35;2.00;;;;;;;;;;5111318;27;20254;-72
2022/05/25 03:00:03;;;;;;;6.45;2.05;;;;;;;;;;5122004;27;20590;-74
2022/05/25 03:02:29;;;;;;;7.97;2.28;;;;;;;;;;5112864;27;20185;-72
2022/05/25 03:04:56;;;;;;;4.78;2.20;;;;;;;;;;5115236;27;21083;-73
2022/05/25 03:07:22;;;;;;;9.98;2.10;;;;;;;;;;5107085;27;20958;-72
2022/05/25 03:09:48;;;;;;;11.23;2.35;;;;;;;;;;5123134;27;20204;-72
2022/05/25 03:12:14;;;;;;;7.95;2.20;;;;;;;;;;5111375;27;20193;-72
2022/05/25 03:14:40;;;;;;;5.25;2.35;;;;;;;;;;5115957;27;20196;-73
2022/05/25 03:17:10;;;;;;;9.40;2.30;;;;;;;;;;5114437;27;20185;-73
2022/05/25 03:19:44;;;;;;;8.35;2.50;;;;;;;;;;5110770;28;20192;-71
2022/05/25 03:22:10;;;;;;;8.52;2.30;;;;;;;;;;5113309;27;20555;-73
2022/05/25 03:24:36;;;;;;;7.00;2.50;;;;;;;;;;5109511;27;20205;-73
2022/05/25 03:27:02;;;;;;;7.55;2.72;;;;;;;;;;5114026;27;20188;-74
2022/05/25 03:29:30;;;;;;;10.75;2.90;;;;;;;;;;5112258;27;20188;-74
2022/05/25 03:31:57;;;;;;;7.60;2.85;;;;;;;;;;5110612;27;20543;-73
2022/05/25 03:34:23;;;;;;;6.78;2.50;;;;;;;;;;5110866;27;20668;-72
2022/05/25 03:36:52;;;;;;;8.30;2.92;;;;;;;;;;5111062;27;20190;-71
2022/05/25 03:39:18;;;;;;;9.05;3.22;;;;;;;;;;5108721;28;20204;-73
2022/05/25 03:41:45;;;;;;;6.55;3.08;;;;;;;;;;5120067;27;20220;-74
2022/05/25 03:44:12;;;;;;;10.25;3.50;;;;;;;;;;5124390;27;20273;-76
2022/05/25 03:46:38;;;;;;;7.72;3.30;;;;;;;;;;5125545;27;20200;-73
2022/05/25 03:49:04;;;;;;;6.95;3.13;;;;;;;;;;5110002;27;20185;-75
2022/05/25 03:51:30;;;;;;;7.38;2.97;;;;;;;;;;5109339;28;20665;-73
2022/05/25 03:53:57;;;;;;;6.88;2.80;;;;;;;;;;5107442;28;20587;-73
2022/05/25 03:56:23;;;;;;;6.82;3.03;;;;;;;;;;5109609;28;20234;-75
2022/05/25 03:58:49;;;;;;;10.32;2.78;;;;;;;;;;5109992;28;20189;-73
2022/05/25 04:01:15;;;;;;;14.82;2.85;;;;;;;;;;5109222;27;20192;-75
2022/05/25 04:03:41;;;;;;;7.85;2.72;;;;;;;;;;5110530;27;20213;-75
2022/05/25 04:06:07;;;;;;;7.35;2.33;;;;;;;;;;5107707;27;20211;-73
2022/05/25 04:08:33;;;;;;;5.30;2.33;;;;;;;;;;5109943;28;20660;-75
2022/05/25 04:10:59;;;;;;;7.55;2.63;;;;;;;;;;5109462;28;20237;-75
2022/05/25 04:13:25;;;;;;;7.70;2.83;;;;;;;;;;5115472;27;20181;-72
2022/05/25 04:15:51;;;;;;;7.45;2.85;;;;;;;;;;5110443;27;20196;-74
2022/05/25 04:18:17;;;;;;;11.70;3.00;;;;;;;;;;5121587;27;20283;-71
2022/05/25 04:20:43;;;;;;;11.10;2.92;;;;;;;;;;5107403;28;20612;-73
2022/05/25 04:23:11;;;;;;;7.43;3.13;;;;;;;;;;5108776;27;20181;-74
2022/05/25 04:25:37;;;;;;;10.80;3.15;;;;;;;;;;5111143;27;20645;-74
2022/05/25 04:28:03;;;;;;;7.20;3.20;;;;;;;;;;5113351;27;20229;-73
2022/05/25 04:30:29;;;;;;;9.95;3.45;;;;;;;;;;5107722;28;20213;-75
2022/05/25 04:32:56;;;;;;;15.43;3.90;;;;;;;;;;5116583;27;20190;-77
2022/05/25 04:35:22;;;;;;;7.25;3.63;;;;;;;;;;5112936;27;20264;-75
2022/05/25 04:37:48;;;;;;;9.25;4.00;;;;;;;;;;5109025;27;20193;-74
2022/05/25 04:40:15;;;;;;;7.78;3.65;;;;;;;;;;5106743;27;20193;-72
2022/05/25 04:42:43;;;;;;;12.02;4.30;;;;;;;;;;5115600;27;20255;-75
2022/05/25 04:45:09;;;;;;;9.57;3.70;;;;;;;;;;5109592;27;20571;-74
2022/05/25 04:47:37;;;;;;;11.55;4.13;;;;;;;;;;5108393;27;20245;-74
2022/05/25 04:50:05;;;;;;;6.88;4.25;;;;;;;;;;5114094;27;20188;-72
2022/05/25 04:52:31;;;;;;;10.88;4.78;;;;;;;;;;5111449;27;20747;-74
2022/05/25 04:54:57;;;;;;;9.23;4.95;;;;;;;;;;5104289;27;20548;-74
2022/05/25 04:57:23;;;;;;;12.23;5.10;;;;;;;;;;5109860;27;20244;-72
2022/05/25 04:59:53;;;;;;;17.00;5.72;;;;;;;;;;5104137;27;20275;-74
2022/05/25 05:02:20;;;;;;;11.23;6.07;;;;;;;;;;5106083;28;20196;-72
2022/05/25 05:04:47;;;;;;;13.23;7.20;;;;;;;;;;5104203;28;20202;-74
2022/05/25 05:07:13;;;;;;;14.43;7.40;;;;;;;;;;5108635;27;20181;-74
2022/05/25 05:09:41;;;;;;;13.95;8.30;;;;;;;;;;5104203;27;20193;-76
2022/05/25 05:12:07;;;;;;;15.55;8.73;;;;;;;;;;5113769;27;20184;-72
2022/05/25 05:14:33;;;;;;;21.23;9.40;;;;;;;;;;5124026;27;20586;-74
2022/05/25 05:17:00;;;;;;;18.42;10.20;;;;;;;;;;5109912;27;20208;-74
2022/05/25 05:19:38;;;;;;;18.70;10.50;;;;;;;;;;5113976;27;20181;-72
2022/05/25 05:22:11;;;;;;;22.42;12.13;;;;;;;;;;5134016;27;20272;-74
2022/05/25 05:24:37;;;;;;;19.52;12.45;;;;;;;;;;5111752;27;20663;-70
2022/05/25 05:27:06;;;;;;;22.30;13.25;;;;;;;;;;5115898;27;20572;-71
2022/05/25 05:29:32;;;;;;;29.40;14.02;;;;;;;;;;5104851;28;20181;-74
2022/05/25 05:31:58;;;;;;;28.75;14.40;;;;;;;;;;5119517;27;20196;-76
2022/05/25 05:34:28;;;;;;;29.30;14.90;;;;;;;;;;5106037;28;20189;-75
2022/05/25 05:37:00;;;;;;;25.05;15.25;;;;;;;;;;5106998;27;20196;-73
2022/05/25 05:39:28;;;;;;;28.60;15.07;;;;;;;;;;5116361;27;20517;-75
2022/05/25 05:42:03;;;;;;;29.83;15.50;;;;;;;;;;5107006;27;20216;-74
2022/05/25 05:44:32;;;;;;;36.22;16.48;;;;;;;;;;5111712;27;20621;-74
2022/05/25 05:46:59;;;;;;;28.70;15.35;;;;;;;;;;5110932;27;20188;-77
2022/05/25 05:49:26;;;;;;;32.72;17.45;;;;;;;;;;5107197;28;20211;-73
2022/05/25 05:51:52;;;;;;;28.42;16.85;;;;;;;;;;5112187;27;20289;-76
2022/05/25 05:54:18;;;;;;;30.92;16.48;;;;;;;;;;5110727;27;20188;-73
2022/05/25 05:56:45;;;;;;;32.20;18.13;;;;;;;;;;5103788;28;20548;-75
2022/05/25 05:59:11;;;;;;;31.30;17.30;;;;;;;;;;5116258;27;20196;-77
2022/05/25 06:01:37;;;;;;;32.28;18.90;;;;;;;;;;5108457;27;20401;-74
2022/05/25 06:04:03;;;;;;;32.53;18.52;;;;;;;;;;5107377;28;20221;-74
2022/05/25 06:06:30;;;;;;;37.72;18.30;;;;;;;;;;5120352;27;20269;-74
2022/05/25 06:08:56;;;;;;;36.55;19.10;;;;;;;;;;5126499;28;20173;-72
2022/05/25 06:11:23;;;;;;;34.75;19.75;;;;;;;;;;5115665;27;20181;-73
2022/05/25 06:13:49;;;;;;;37.03;19.83;;;;;;;;;;5126727;27;20206;-73
2022/05/25 06:21:45;;;;;;;35.17;19.98;;;;;;;;;;5112065;28;20195;-73
2022/05/25 06:24:11;;;;;;;38.40;21.42;;;;;;;;;;5117742;28;20219;-76
2022/05/25 06:26:37;;;;;;;34.95;20.63;;;;;;;;;;5111466;28;20185;-75
2022/05/25 06:29:04;;;;;;;35.40;19.75;;;;;;;;;;5107866;28;20181;-73
2022/05/25 06:31:30;;;;;;;37.97;19.08;;;;;;;;;;5118567;28;20299;-76
2022/05/25 06:33:56;;;;;;;30.05;17.63;;;;;;;;;;5107906;28;20184;-76
2022/05/25 06:36:24;;;;;;;32.50;16.45;;;;;;;;;;5106581;28;20215;-73
2022/05/25 06:38:50;;;;;;;33.22;16.50;;;;;;;;;;5107225;28;20189;-72
2022/05/25 06:41:17;;;;;;;39.35;16.92;;;;;;;;;;5105056;28;20224;-74
2022/05/25 06:43:43;;;;;;;31.17;17.35;;;;;;;;;;5113124;28;20665;-75
2022/05/25 06:46:11;;;;;;;32.30;15.18;;;;;;;;;;5105857;28;20200;-74
2022/05/25 06:48:37;;;;;;;32.78;17.08;;;;;;;;;;5106401;28;20192;-74
2022/05/25 06:51:13;;;;;;;40.55;19.13;;;;;;;;;;5108942;28;20195;-72
2022/05/25 06:53:39;;;;;;;34.50;18.90;;;;;;;;;;5104578;28;20523;-75
2022/05/25 06:56:05;;;;;;;33.92;17.38;;;;;;;;;;5107508;28;20210;-78
2022/05/25 06:58:32;;;;;;;37.03;19.00;;;;;;;;;;5104104;28;20185;-72
2022/05/25 07:00:58;;;;;;;41.45;19.25;;;;;;;;;;5113702;28;20287;-73
2022/05/25 07:03:24;;;;;;;36.15;18.85;;;;;;;;;;5108256;28;20201;-74
2022/05/25 07:05:50;;;;;;;39.15;18.05;;;;;;;;;;5110312;28;20172;-74
2022/05/25 07:08:17;;;;;;;38.35;18.35;;;;;;;;;;5110440;28;20215;-73
2022/05/25 07:10:45;;;;;;;25.77;14.75;;;;;;;;;;5104925;28;20185;-73
2022/05/25 07:13:17;;;;;;;27.55;12.40;;;;;;;;;;5100739;27;20192;-72
2022/05/25 07:15:43;;;;;;;22.98;10.60;;;;;;;;;;5110167;27;20556;-73
2022/05/25 07:18:10;;;;;;;16.55;9.02;;;;;;;;;;5108872;28;20185;-74
2022/05/25 07:20:36;;;;;;;23.50;13.00;;;;;;;;;;5115515;27;20203;-76
2022/05/25 07:23:02;;;;;;;24.38;12.93;;;;;;;;;;5118255;27;20208;-73
2022/05/25 07:25:28;;;;;;;27.63;16.30;;;;;;;;;;5115834;27;20209;-72
2022/05/25 07:27:54;;;;;;;22.67;14.80;;;;;;;;;;5118905;27;20181;-74
2022/05/25 07:30:20;;;;;;;25.35;13.82;;;;;;;;;;5110645;27;20854;-76
2022/05/25 07:32:47;;;;;;;27.63;13.25;;;;;;;;;;5117743;27;20195;-75
2022/05/25 07:35:14;;;;;;;22.52;11.63;;;;;;;;;;5125366;27;20193;-73
2022/05/25 07:37:42;;;;;;;22.50;12.85;;;;;;;;;;5134226;27;20184;-74
2022/05/25 07:40:13;;;;;;;22.08;11.50;;;;;;;;;;5118332;27;20372;-75
2022/05/25 07:42:41;;;;;;;26.02;11.93;;;;;;;;;;5112757;27;20232;-73
2022/05/25 07:45:08;;;;;;;19.60;11.63;;;;;;;;;;5118156;27;20633;-73
2022/05/25 07:47:34;;;;;;;17.77;11.93;;;;;;;;;;5121924;27;20196;-74
2022/05/25 07:50:00;;;;;;;21.30;10.43;;;;;;;;;;5109429;27;20182;-73
2022/05/25 07:52:28;;;;;;;19.20;10.05;;;;;;;;;;5129199;27;20180;-73
2022/05/25 07:54:55;;;;;;;27.15;14.75;;;;;;;;;;5118357;27;20196;-73
2022/05/25 07:57:21;;;;;;;26.55;16.45;;;;;;;;;;5111413;27;20179;-73
2022/05/25 07:59:47;;;;;;;28.17;16.48;;;;;;;;;;5103066;28;20193;-78
2022/05/25 08:07:49;;;;;;;14.23;7.90;;;;;;;;;;5119425;27;20194;-72
2022/05/25 08:10:17;;;;;;;15.23;10.73;;;;;;;;;;5116143;27;20203;-70
2022/05/25 08:12:43;;;;;;;16.85;7.05;;;;;;;;;;5123472;27;20716;-73
2022/05/25 08:15:10;;;;;;;21.85;6.07;;;;;;;;;;5115228;27;20189;-74
2022/05/25 08:17:37;;;;;;;17.63;4.03;;;;;;;;;;5135636;27;20193;-71
2022/05/25 08:20:04;;;;;;;8.63;3.80;;;;;;;;;;5114378;27;20217;-72
2022/05/25 08:22:30;;;;;;;16.85;3.45;;;;;;;;;;5110255;27;20699;-75
2022/05/25 08:24:57;;;;;;;13.75;3.80;;;;;;;;;;5120328;27;20201;-73
2022/05/25 08:27:23;;;;;;;10.88;3.30;;;;;;;;;;5109447;27;20187;-73
2022/05/25 08:29:49;;;;;;;5.70;2.60;;;;;;;;;;5109614;28;20189;-76
2022/05/25 08:32:15;;;;;;;14.15;2.50;;;;;;;;;;5119080;27;20580;-73
2022/05/25 08:34:41;;;;;;;9.85;2.22;;;;;;;;;;5116917;27;20531;-73
2022/05/25 08:37:07;;;;;;;10.73;2.13;;;;;;;;;;5116092;27;20201;-73
2022/05/25 08:39:34;;;;;;;9.23;2.28;;;;;;;;;;5110775;27;20199;-71
2022/05/25 08:42:01;;;;;;;6.45;1.90;;;;;;;;;;5116972;27;20272;-72
2022/05/25 08:44:28;;;;;;;9.02;1.60;;;;;;;;;;5117640;27;20813;-74
2022/05/25 08:46:55;;;;;;;13.93;2.22;;;;;;;;;;5117496;27;20184;-76
2022/05/25 08:49:22;;;;;;;12.48;2.47;;;;;;;;;;5126207;27;20181;-71
2022/05/25 08:51:51;;;;;;;8.23;1.92;;;;;;;;;;5107955;27;20264;-77
2022/05/25 08:54:19;;;;;;;17.08;2.03;;;;;;;;;;5106205;27;20185;-75
2022/05/25 08:56:50;;;;;;;4.50;1.73;;;;;;;;;;5117434;27;20275;-72
2022/05/25 08:59:22;;;;;;;7.00;1.90;;;;;;;;;;5112450;27;20193;-75
2022/05/25 09:01:51;;;;;;;7.00;1.13;;;;;;;;;;5127812;27;20189;-73
2022/05/25 09:04:18;;;;;;;4.95;1.10;;;;;;;;;;5108639;27;20239;-76
2022/05/25 09:06:53;;;;;;;4.93;1.52;;;;;;;;;;5117732;27;20196;-77
2022/05/25 09:09:26;;;;;;;7.07;1.70;;;;;;;;;;5111632;27;20199;-74
2022/05/25 09:11:56;;;;;;;8.20;1.20;;;;;;;;;;5116916;27;20585;-74
2022/05/25 09:14:33;;;;;;;4.68;1.30;;;;;;;;;;5105702;28;20182;-71
2022/05/25 09:17:01;;;;;;;7.32;0.93;;;;;;;;;;5126661;27;20191;-73
2022/05/25 09:19:32;;;;;;;6.10;1.00;;;;;;;;;;5118324;27;20200;-73
2022/05/25 09:22:01;;;;;;;7.40;1.10;;;;;;;;;;5119596;27;20185;-74
2022/05/25 09:24:28;;;;;;;5.38;1.05;;;;;;;;;;5106626;27;20215;-75
2022/05/25 09:26:54;;;;;;;7.13;1.00;;;;;;;;;;5113527;27;20189;-73
2022/05/25 09:29:21;;;;;;;3.05;1.08;;;;;;;;;;5108162;27;20650;-72
2022/05/25 09:32:06;;;;;;;6.03;0.60;;;;;;;;;;5120349;27;20228;-76
2022/05/25 09:34:51;;;;;;;5.22;1.20;;;;;;;;;;5105746;28;20193;-74
2022/05/25 09:37:29;;;;;;;7.57;1.10;;;;;;;;;;5116204;27;20575;-74
2022/05/25 09:39:55;;;;;;;2.53;0.88;;;;;;;;;;5113563;27;20188;-74
2022/05/25 09:42:22;;;;;;;4.25;1.00;;;;;;;;;;5116425;27;20244;-77
2022/05/25 09:44:54;;;;;;;6.30;0.95;;;;;;;;;;5117406;27;20221;-72
2022/05/25 09:47:24;;;;;;;4.05;0.60;;;;;;;;;;5109437;27;20180;-74
2022/05/25 09:49:52;;;;;;;5.45;1.40;;;;;;;;;;5125662;27;20181;-74
2022/05/25 09:52:30;;;;;;;4.70;1.10;;;;;;;;;;5113844;27;20185;-73
2022/05/25 09:54:58;;;;;;;7.18;1.08;;;;;;;;;;5111493;27;20556;-74
2022/05/25 09:57:24;;;;;;;2.83;0.95;;;;;;;;;;5107919;27;20696;-76
2022/05/25 10:00:13;;;;;;;7.88;1.20;;;;;;;;;;5104473;27;20219;-75
2022/05/25 10:02:42;;;;;;;3.97;1.05;;;;;;;;;;5107448;28;20683;-74
2022/05/25 10:05:35;;;;;;;5.75;1.10;;;;;;;;;;5112052;27;20208;-75
2022/05/25 10:08:03;;;;;;;9.38;1.25;;;;;;;;;;5101478;27;20257;-74
2022/05/25 10:10:32;;;;;;;3.30;0.82;;;;;;;;;;5102866;28;20177;-77
2022/05/25 10:13:02;;;;;;;4.20;0.93;;;;;;;;;;5108745;28;20208;-76
2022/05/25 10:15:33;;;;;;;4.05;1.10;;;;;;;;;;5105403;28;20226;-75
2022/05/25 10:17:59;;;;;;;6.32;1.30;;;;;;;;;;5107602;28;20177;-74
2022/05/25 10:20:43;;;;;;;4.50;1.17;;;;;;;;;;5106039;28;20193;-76
2022/05/25 10:23:18;;;;;;;3.42;1.08;;;;;;;;;;5117687;28;20193;-75
2022/05/25 10:25:45;;;;;;;6.18;0.90;;;;;;;;;;5106974;28;20219;-74
2022/05/25 10:28:23;;;;;;;7.50;1.20;;;;;;;;;;5108351;28;20181;-74
2022/05/25 10:36:52;;;;;;;7.78;1.30;;;;;;;;;;5105376;28;20217;-76
2022/05/25 10:39:23;;;;;;;4.68;1.17;;;;;;;;;;5110057;28;20652;-74
2022/05/25 10:41:59;;;;;;;5.43;1.27;;;;;;;;;;5113170;28;20215;-75
2022/05/25 10:44:26;;;;;;;5.30;1.27;;;;;;;;;;5129033;27;20209;-73
2022/05/25 10:46:57;;;;;;;5.53;1.17;;;;;;;;;;5108800;28;20196;-75
2022/05/25 10:49:37;;;;;;;3.45;0.82;;;;;;;;;;5118283;27;20295;-71
2022/05/25 10:52:09;;;;;;;4.70;0.90;;;;;;;;;;5111418;27;20227;-72
2022/05/25 10:54:45;;;;;;;5.95;1.42;;;;;;;;;;5113076;28;20277;-74
2022/05/25 10:57:24;;;;;;;4.10;1.05;;;;;;;;;;5109994;28;20192;-75
2022/05/25 11:00:00;;;;;;;5.65;1.00;;;;;;;;;;5112265;27;20657;-74
2022/05/25 11:02:32;;;;;;;5.35;1.40;;;;;;;;;;5111649;28;20234;-71
2022/05/25 11:05:04;;;;;;;6.25;0.95;;;;;;;;;;5111701;28;20228;-73
2022/05/25 11:07:33;;;;;;;6.30;1.17;;;;;;;;;;5112635;27;20182;-74
2022/05/25 11:10:08;;;;;;;6.45;1.15;;;;;;;;;;5112534;27;20199;-74
2022/05/25 11:12:34;;;;;;;6.45;1.60;;;;;;;;;;5114565;27;20196;-74
2022/05/25 11:15:06;;;;;;;9.35;1.65;;;;;;;;;;5111347;28;20203;-73
2022/05/25 11:17:51;;;;;;;5.57;1.25;;;;;;;;;;5117126;27;20280;-72
2022/05/25 11:20:38;;;;;;;6.45;1.73;;;;;;;;;;5110166;27;20195;-71
2022/05/25 11:23:23;;;;;;;7.30;1.52;;;;;;;;;;5140030;27;20681;-72
2022/05/25 11:26:21;;;;;;;3.83;1.08;;;;;;;;;;5113238;27;20238;-73
2022/05/25 11:28:47;;;;;;;9.48;1.08;;;;;;;;;;5088258;28;20736;-71
2022/05/25 11:31:19;;;;;;;4.80;0.93;;;;;;;;;;5114493;27;20311;-76
2022/05/25 11:33:51;;;;;;;6.50;1.48;;;;;;;;;;5117792;27;20181;-72
2022/05/25 11:36:37;;;;;;;2.53;1.10;;;;;;;;;;5118451;27;20196;-75
2022/05/25 11:39:22;;;;;;;8.07;1.33;;;;;;;;;;5110852;28;20185;-74
2022/05/25 11:42:03;;;;;;;3.85;0.80;;;;;;;;;;5115943;27;20620;-74
2022/05/25 11:44:40;;;;;;;9.00;1.38;;;;;;;;;;5125535;27;20298;-73
2022/05/25 11:47:25;;;;;;;6.57;1.10;;;;;;;;;;5118395;27;20481;-76
2022/05/25 11:50:00;;;;;;;6.63;1.20;;;;;;;;;;5109433;27;20219;-70
2022/05/25 11:52:32;;;;;;;3.72;1.10;;;;;;;;;;5128742;27;20546;-71
2022/05/25 11:55:11;;;;;;;3.38;1.10;;;;;;;;;;5114546;27;20268;-71
2022/05/25 11:57:56;;;;;;;12.10;0.95;;;;;;;;;;5110602;27;20552;-78
2022/05/25 12:00:41;;;;;;;6.18;1.20;;;;;;;;;;5118672;27;20189;-74
2022/05/25 12:03:13;;;;;;;7.07;0.80;;;;;;;;;;5123859;27;20208;-75
2022/05/25 12:05:48;;;;;;;7.15;1.25;;;;;;;;;;5117740;27;20600;-76
2022/05/25 12:08:26;;;;;;;8.30;1.20;;;;;;;;;;5116269;27;20193;-74
2022/05/25 12:11:12;;;;;;;7.15;1.35;;;;;;;;;;5115443;27;20664;-75
2022/05/25 12:13:43;;;;;;;19.88;1.83;;;;;;;;;;5109984;28;20483;-74
2022/05/25 12:16:09;;;;;;;8.35;1.33;;;;;;;;;;5111077;27;20196;-74
2022/05/25 12:18:55;;;;;;;12.50;1.20;;;;;;;;;;5119254;27;20208;-73
2022/05/25 12:21:28;;;;;;;9.90;1.13;;;;;;;;;;5111683;27;20580;-73
2022/05/25 12:23:57;;;;;;;8.73;1.45;;;;;;;;;;5110736;27;20200;-72
2022/05/25 12:26:29;;;;;;;15.82;1.13;;;;;;;;;;5115224;27;20206;-73
2022/05/25 12:29:21;;;;;;;5.03;1.23;;;;;;;;;;5116062;27;20275;-74
2022/05/25 12:31:50;;;;;;;8.57;1.27;;;;;;;;;;5109093;27;20660;-74
2022/05/25 12:34:17;;;;;;;10.88;1.20;;;;;;;;;;5110493;27;20544;-76
2022/05/25 12:36:44;;;;;;;6.03;1.33;;;;;;;;;;5120681;27;20582;-73
2022/05/25 12:39:10;;;;;;;11.55;1.65;;;;;;;;;;5118459;27;20196;-75
2022/05/25 12:41:37;;;;;;;6.13;1.20;;;;;;;;;;5115544;27;20216;-74
2022/05/25 12:49:41;;;;;;;9.38;1.45;;;;;;;;;;5112107;27;20275;-72
2022/05/25 12:52:25;;;;;;;8.00;1.20;;;;;;;;;;5111578;27;20641;-75
2022/05/25 12:54:51;;;;;;;3.47;1.20;;;;;;;;;;5114937;27;20184;-72
2022/05/25 12:57:22;;;;;;;9.45;1.65;;;;;;;;;;5112559;27;20691;-76
2022/05/25 12:59:50;;;;;;;15.35;1.67;;;;;;;;;;5107217;28;20193;-73
2022/05/25 13:02:19;;;;;;;22.15;2.13;;;;;;;;;;5086622;28;20185;-72
2022/05/25 13:04:45;;;;;;;18.20;1.92;;;;;;;;;;5109823;28;20239;-76
2022/05/25 13:07:30;;;;;;;13.75;1.85;;;;;;;;;;5107831;27;20189;-73
2022/05/25 13:09:56;;;;;;;16.42;2.15;;;;;;;;;;5113890;27;20188;-72
2022/05/25 13:12:42;;;;;;;11.57;1.80;;;;;;;;;;5116285;27;20233;-76
2022/05/25 13:15:11;;;;;;;11.23;1.80;;;;;;;;;;5119142;27;20733;-72
2022/05/25 13:17:42;;;;;;;11.48;1.90;;;;;;;;;;5107386;28;20656;-74
2022/05/25 13:20:13;;;;;;;13.98;1.40;;;;;;;;;;5110292;27;20272;-74
2022/05/25 13:22:39;;;;;;;7.65;1.50;;;;;;;;;;5107678;28;20177;-75
2022/05/25 13:25:34;;;;;;;10.57;2.00;;;;;;;;;;5108429;27;20638;-73
2022/05/25 13:28:19;;;;;;;15.45;2.00;;;;;;;;;;5092738;27;20531;-71
2022/05/25 13:30:50;;;;;;;11.88;1.70;;;;;;;;;;5113511;27;20191;-75
2022/05/25 13:33:16;;;;;;;12.55;1.75;;;;;;;;;;5115005;27;20297;-74
2022/05/25 13:35:51;;;;;;;12.32;2.00;;;;;;;;;;5113645;27;20197;-74
2022/05/25 13:38:29;;;;;;;11.30;1.80;;;;;;;;;;5123504;27;20185;-74
2022/05/25 13:41:07;;;;;;;10.25;1.60;;;;;;;;;;5107274;28;20326;-70
2022/05/25 13:43:40;;;;;;;10.43;2.00;;;;;;;;;;5113940;27;20272;-72
2022/05/25 13:46:09;;;;;;;14.38;1.98;;;;;;;;;;5108913;28;20173;-71
2022/05/25 13:48:36;;;;;;;13.60;1.80;;;;;;;;;;5108324;27;20747;-71
2022/05/25 13:51:02;;;;;;;10.75;1.92;;;;;;;;;;5109910;28;20177;-74
2022/05/25 13:53:33;;;;;;;9.52;1.50;;;;;;;;;;5106137;28;20632;-72
2022/05/25 13:56:01;;;;;;;14.65;2.00;;;;;;;;;;5110026;27;20196;-73
2022/05/25 13:58:27;;;;;;;9.52;1.65;;;;;;;;;;5104197;28;20228;-73
2022/05/25 14:00:53;;;;;;;11.77;1.65;;;;;;;;;;5110184;28;20182;-73
2022/05/25 14:03:19;;;;;;;12.90;2.03;;;;;;;;;;5105821;27;20197;-72
2022/05/25 14:05:45;;;;;;;11.80;1.55;;;;;;;;;;5106383;28;20677;-71
2022/05/25 14:08:14;;;;;;;17.23;2.10;;;;;;;;;;5105946;28;20186;-71
2022/05/25 14:10:54;;;;;;;19.00;2.25;;;;;;;;;;5107214;28;20246;-74
2022/05/25 14:13:22;;;;;;;15.38;2.10;;;;;;;;;;5111170;27;20191;-71
2022/05/25 14:15:58;;;;;;;8.45;1.48;;;;;;;;;;5107961;27;20646;-75
2022/05/25 14:18:25;;;;;;;5.30;0.95;;;;;;;;;;5122455;27;20210;-72
2022/05/25 14:20:51;;;;;;;17.13;2.22;;;;;;;;;;5107961;28;20199;-73
2022/05/25 14:23:18;;;;;;;14.50;2.03;;;;;;;;;;5105647;28;20201;-71
2022/05/25 14:25:45;;;;;;;14.52;2.10;;;;;;;;;;5110813;28;20417;-71
2022/05/25 14:28:12;;;;;;;10.88;2.00;;;;;;;;;;5110284;28;20633;-71
2022/05/25 14:30:38;;;;;;;16.75;2.38;;;;;;;;;;5121833;27;20693;-72
2022/05/25 14:33:08;;;;;;;18.88;1.95;;;;;;;;;;5114298;27;20212;-71
2022/05/25 14:35:35;;;;;;;15.93;2.10;;;;;;;;;;5111840;28;20649;-71
2022/05/25 14:38:02;;;;;;;14.40;2.22;;;;;;;;;;5113821;27;20667;-72
2022/05/25 14:40:31;;;;;;;14.43;2.17;;;;;;;;;;5113568;28;20551;-72
2022/05/25 14:43:01;;;;;;;12.60;1.83;;;;;;;;;;5110623;27;20196;-71
2022/05/25 14:45:28;;;;;;;14.57;2.25;;;;;;;;;;5119508;27;20547;-72
2022/05/25 14:47:57;;;;;;;17.45;1.98;;;;;;;;;;5106279;28;20181;-70
2022/05/25 14:50:31;;;;;;;24.02;2.33;;;;;;;;;;5114418;27;20191;-71
2022/05/25 14:52:57;;;;;;;11.15;2.33;;;;;;;;;;5110213;28;20207;-71
2022/05/25 14:55:26;;;;;;;16.40;3.10;;;;;;;;;;5107323;27;20559;-71
2022/05/25 14:58:06;;;;;;;16.90;2.55;;;;;;;;;;5109422;27;20238;-71
2022/05/25 15:00:36;;;;;;;12.77;2.15;;;;;;;;;;5110948;28;20200;-72
2022/05/25 15:03:02;;;;;;;16.08;2.20;;;;;;;;;;5108247;27;20185;-71
2022/05/25 15:05:39;;;;;;;18.65;2.58;;;;;;;;;;5109829;28;20216;-70
2022/05/25 15:08:19;;;;;;;17.80;2.95;;;;;;;;;;5107604;27;20181;-73
2022/05/25 15:10:45;;;;;;;20.00;2.38;;;;;;;;;;5110561;28;20697;-71
2022/05/25 15:13:23;;;;;;;13.43;2.30;;;;;;;;;;5107938;27;20232;-71
2022/05/25 15:18:36;;;;;;;19.15;2.45;;;;;;;;;;5107747;28;20197;-71
2022/05/25 15:21:12;;;;;;;12.23;2.10;;;;;;;;;;5112111;28;20196;-73
2022/05/25 15:23:41;;;;;;;15.15;2.20;;;;;;;;;;5110209;27;20254;-74